JBU7532 PHOG-PHNL
Flight info
| Callsign | JBU7532 |
|---|---|
| Flight time | 0h 26m |
| Altitude | 14000 |
| Route | MAUI5 OGG LNY JULLE5 |
| Aircraft | A20N/M-SDE2E3FGHIRWXY/LB1 |
Departure
| Time | 2026-04-23 23:37 |
|---|---|
| Airport | Kahului International Airport (PHOG) |
Arrival
| Time | 2026-04-24 00:03 |
|---|---|
| Airport | Daniel K. Inouye International Airport (PHNL) |
| Time | Latitude | Longitude | Altitude | Speed | Heading |
|---|---|---|---|---|---|
| 2026-04-23 23:16 | 20.89534 | -156.43500 | 43 ft | 0 kts | 304° |
| 2026-04-23 23:30 | 20.89531 | -156.43495 | 43 ft | 1 kts | 304° |
| 2026-04-23 23:30 | 20.89521 | -156.43479 | 43 ft | 1 kts | 303° |
| 2026-04-23 23:31 | 20.89519 | -156.43477 | 43 ft | 0 kts | 303° |
| 2026-04-23 23:31 | 20.89518 | -156.43475 | 43 ft | 3 kts | 303° |
| 2026-04-23 23:31 | 20.89508 | -156.43451 | 46 ft | 4 kts | 273° |
| 2026-04-23 23:32 | 20.89513 | -156.43417 | 46 ft | 5 kts | 246° |
| 2026-04-23 23:32 | 20.89535 | -156.43386 | 44 ft | 0 kts | 216° |
| 2026-04-23 23:32 | 20.89535 | -156.43387 | 43 ft | 0 kts | 216° |
| 2026-04-23 23:34 | 20.89527 | -156.43393 | 46 ft | 15 kts | 216° |
| 2026-04-23 23:34 | 20.89386 | -156.43455 | 51 ft | 25 kts | 191° |
| 2026-04-23 23:35 | 20.89210 | -156.43570 | 49 ft | 35 kts | 216° |
| 2026-04-23 23:35 | 20.89020 | -156.43716 | 61 ft | 36 kts | 214° |
| 2026-04-23 23:35 | 20.88980 | -156.43745 | 62 ft | 5 kts | 213° |
| 2026-04-23 23:35 | 20.89032 | -156.43723 | 56 ft | 10 kts | 186° |
| 2026-04-23 23:36 | 20.89002 | -156.43709 | 59 ft | 10 kts | 153° |
| 2026-04-23 23:36 | 20.88952 | -156.43650 | 56 ft | 13 kts | 114° |
| 2026-04-23 23:36 | 20.88945 | -156.43621 | 60 ft | 7 kts | 96° |
| 2026-04-23 23:36 | 20.88963 | -156.43604 | 57 ft | 46 kts | 59° |
| 2026-04-23 23:37 | 20.89533 | -156.43179 | 48 ft | 148 kts | 34° |
| 2026-04-23 23:37 | 20.90444 | -156.42485 | 686 ft | 174 kts | 33° |
| 2026-04-23 23:37 | 20.91506 | -156.41877 | 1449 ft | 200 kts | 14° |
| 2026-04-23 23:37 | 20.92899 | -156.41643 | 2417 ft | 219 kts | 8° |
| 2026-04-23 23:38 | 20.94392 | -156.41770 | 3982 ft | 221 kts | 341° |
| 2026-04-23 23:38 | 20.95765 | -156.42576 | 5349 ft | 230 kts | 329° |
| 2026-04-23 23:38 | 20.97157 | -156.43494 | 6520 ft | 247 kts | 329° |
| 2026-04-23 23:38 | 20.98728 | -156.44509 | 7478 ft | 271 kts | 329° |
| 2026-04-23 23:39 | 21.00223 | -156.45824 | 8216 ft | 285 kts | 308° |
| 2026-04-23 23:39 | 21.01108 | -156.47725 | 8678 ft | 289 kts | 283° |
| 2026-04-23 23:39 | 21.01141 | -156.49874 | 9061 ft | 292 kts | 258° |
| 2026-04-23 23:39 | 21.00320 | -156.51858 | 9437 ft | 295 kts | 237° |
| 2026-04-23 23:40 | 20.99094 | -156.53658 | 9835 ft | 314 kts | 233° |
| 2026-04-23 23:40 | 20.97798 | -156.55569 | 10192 ft | 332 kts | 236° |
| 2026-04-23 23:40 | 20.96534 | -156.57662 | 10542 ft | 335 kts | 239° |
| 2026-04-23 23:40 | 20.95758 | -156.59059 | 10769 ft | 338 kts | 241° |
| 2026-04-23 23:41 | 20.94636 | -156.61188 | 11107 ft | 358 kts | 242° |
| 2026-04-23 23:41 | 20.93539 | -156.63592 | 11461 ft | 360 kts | 252° |
| 2026-04-23 23:41 | 20.93078 | -156.66210 | 11823 ft | 359 kts | 269° |
| 2026-04-23 23:41 | 20.93063 | -156.68888 | 12108 ft | 360 kts | 272° |
| 2026-04-23 23:42 | 20.93147 | -156.71567 | 12362 ft | 361 kts | 275° |
| 2026-04-23 23:42 | 20.93277 | -156.74252 | 12633 ft | 362 kts | 274° |
| 2026-04-23 23:42 | 20.93364 | -156.76944 | 12734 ft | 363 kts | 274° |
| 2026-04-23 23:42 | 20.93438 | -156.79631 | 12629 ft | 362 kts | 273° |
| 2026-04-23 23:43 | 20.93500 | -156.82324 | 12530 ft | 358 kts | 273° |
| 2026-04-23 23:43 | 20.93546 | -156.84946 | 12423 ft | 345 kts | 272° |
| 2026-04-23 23:43 | 20.93578 | -156.87416 | 12329 ft | 328 kts | 272° |
| 2026-04-23 23:43 | 20.93598 | -156.89827 | 12228 ft | 312 kts | 272° |
| 2026-04-23 23:44 | 20.93604 | -156.92080 | 12133 ft | 296 kts | 272° |
| 2026-04-23 23:44 | 20.93597 | -156.94194 | 12034 ft | 283 kts | 271° |
| 2026-04-23 23:44 | 20.93585 | -156.96445 | 11987 ft | 326 kts | 271° |
| 2026-04-23 23:44 | 20.93572 | -156.98998 | 11950 ft | 358 kts | 271° |
| 2026-04-23 23:45 | 20.93552 | -157.01681 | 11903 ft | 361 kts | 271° |
| 2026-04-23 23:45 | 20.93522 | -157.04385 | 11857 ft | 362 kts | 270° |
| 2026-04-23 23:45 | 20.93561 | -157.07068 | 11804 ft | 360 kts | 277° |
| 2026-04-23 23:45 | 20.93906 | -157.09717 | 11633 ft | 359 kts | 280° |
| 2026-04-23 23:46 | 20.94267 | -157.12361 | 11362 ft | 358 kts | 278° |
| 2026-04-23 23:46 | 20.94528 | -157.15008 | 11128 ft | 358 kts | 276° |
| 2026-04-23 23:46 | 20.94700 | -157.17657 | 10893 ft | 357 kts | 274° |
| 2026-04-23 23:46 | 20.94818 | -157.20314 | 10661 ft | 357 kts | 273° |
| 2026-04-23 23:47 | 20.94909 | -157.22917 | 10423 ft | 356 kts | 272° |
| 2026-04-23 23:47 | 20.94992 | -157.25568 | 10204 ft | 355 kts | 272° |
| 2026-04-23 23:47 | 20.95072 | -157.28199 | 10113 ft | 354 kts | 272° |
| 2026-04-23 23:47 | 20.95153 | -157.30835 | 10103 ft | 355 kts | 272° |
| 2026-04-23 23:48 | 20.95235 | -157.33434 | 10103 ft | 351 kts | 272° |
| 2026-04-23 23:48 | 20.95314 | -157.35971 | 10095 ft | 329 kts | 272° |
| 2026-04-23 23:48 | 20.95389 | -157.38359 | 10096 ft | 308 kts | 272° |
| 2026-04-23 23:48 | 20.95459 | -157.40573 | 10093 ft | 291 kts | 272° |
| 2026-04-23 23:49 | 20.95600 | -157.44973 | 10091 ft | 296 kts | 272° |
| 2026-04-23 23:49 | 20.95669 | -157.47165 | 10092 ft | 296 kts | 272° |
| 2026-04-23 23:49 | 20.95737 | -157.49344 | 10095 ft | 296 kts | 272° |
| 2026-04-23 23:50 | 20.95805 | -157.51517 | 10093 ft | 296 kts | 272° |
| 2026-04-23 23:50 | 20.95874 | -157.53749 | 9904 ft | 298 kts | 272° |
| 2026-04-23 23:50 | 20.95942 | -157.55958 | 9527 ft | 295 kts | 272° |
| 2026-04-23 23:50 | 20.96009 | -157.58112 | 9155 ft | 292 kts | 273° |
| 2026-04-23 23:51 | 20.96388 | -157.60262 | 8774 ft | 292 kts | 289° |
| 2026-04-23 23:51 | 20.97132 | -157.62271 | 8405 ft | 289 kts | 294° |
| 2026-04-23 23:51 | 20.97926 | -157.64251 | 8041 ft | 289 kts | 294° |
| 2026-04-23 23:51 | 20.98676 | -157.66245 | 7678 ft | 288 kts | 292° |
| 2026-04-23 23:52 | 20.99373 | -157.68244 | 7312 ft | 286 kts | 291° |
| 2026-04-23 23:52 | 21.00035 | -157.70247 | 6969 ft | 286 kts | 290° |
| 2026-04-23 23:52 | 21.00678 | -157.72252 | 6614 ft | 283 kts | 290° |
| 2026-04-23 23:52 | 21.01312 | -157.74246 | 6207 ft | 284 kts | 290° |
| 2026-04-23 23:53 | 21.01954 | -157.76273 | 5600 ft | 290 kts | 290° |
| 2026-04-23 23:53 | 21.02587 | -157.78272 | 5019 ft | 294 kts | 290° |
| 2026-04-23 23:53 | 21.03258 | -157.80388 | 4428 ft | 297 kts | 291° |
| 2026-04-23 23:53 | 21.03910 | -157.82451 | 4176 ft | 286 kts | 291° |
| 2026-04-23 23:54 | 21.04526 | -157.84401 | 4110 ft | 272 kts | 291° |
| 2026-04-23 23:54 | 21.05147 | -157.86346 | 4110 ft | 278 kts | 291° |
| 2026-04-23 23:54 | 21.05776 | -157.88314 | 4112 ft | 280 kts | 291° |
| 2026-04-23 23:54 | 21.06404 | -157.90276 | 4110 ft | 279 kts | 291° |
| 2026-04-23 23:55 | 21.07012 | -157.92195 | 4113 ft | 279 kts | 291° |
| 2026-04-23 23:55 | 21.07652 | -157.94217 | 4114 ft | 281 kts | 291° |
| 2026-04-23 23:55 | 21.08272 | -157.96181 | 3992 ft | 277 kts | 291° |
| 2026-04-23 23:55 | 21.08881 | -157.98103 | 3983 ft | 268 kts | 291° |
| 2026-04-23 23:56 | 21.09489 | -158.00024 | 3986 ft | 276 kts | 291° |
| 2026-04-23 23:56 | 21.10105 | -158.01966 | 3987 ft | 271 kts | 291° |
| 2026-04-23 23:56 | 21.10692 | -158.03826 | 3989 ft | 255 kts | 291° |
| 2026-04-23 23:56 | 21.11287 | -158.05515 | 3991 ft | 237 kts | 301° |
| 2026-04-23 23:57 | 21.12288 | -158.06834 | 3991 ft | 217 kts | 327° |
| 2026-04-23 23:57 | 21.13536 | -158.07469 | 3947 ft | 188 kts | 352° |
| 2026-04-23 23:57 | 21.14784 | -158.07494 | 3821 ft | 170 kts | 13° |
| 2026-04-23 23:57 | 21.15870 | -158.07049 | 3686 ft | 169 kts | 32° |
| 2026-04-23 23:58 | 21.16780 | -158.06267 | 3290 ft | 167 kts | 43° |
| 2026-04-23 23:58 | 21.17636 | -158.05458 | 2804 ft | 165 kts | 42° |
| 2026-04-23 23:58 | 21.18635 | -158.04879 | 2333 ft | 165 kts | 20° |
| 2026-04-23 23:58 | 21.19694 | -158.04435 | 2066 ft | 164 kts | 28° |
| 2026-04-23 23:59 | 21.20647 | -158.03805 | 1989 ft | 162 kts | 42° |
| 2026-04-23 23:59 | 21.21592 | -158.03124 | 1924 ft | 164 kts | 31° |
| 2026-04-23 23:59 | 21.22624 | -158.02619 | 2106 ft | 163 kts | 21° |
| 2026-04-23 23:59 | 21.23685 | -158.02155 | 2129 ft | 168 kts | 29° |
| 2026-04-24 00:00 | 21.24698 | -158.01597 | 2126 ft | 163 kts | 30° |
| 2026-04-24 00:00 | 21.25598 | -158.00870 | 1926 ft | 161 kts | 45° |
| 2026-04-24 00:00 | 21.26291 | -158.00001 | 1694 ft | 162 kts | 51° |
| 2026-04-24 00:00 | 21.26854 | -157.99170 | 1507 ft | 162 kts | 53° |
| 2026-04-24 00:01 | 21.27545 | -157.98192 | 1280 ft | 167 kts | 52° |
| 2026-04-24 00:01 | 21.28231 | -157.97215 | 1061 ft | 160 kts | 52° |
| 2026-04-24 00:01 | 21.28885 | -157.96287 | 859 ft | 157 kts | 52° |
| 2026-04-24 00:01 | 21.29558 | -157.95326 | 640 ft | 157 kts | 52° |
| 2026-04-24 00:02 | 21.30230 | -157.94373 | 431 ft | 163 kts | 53° |
| 2026-04-24 00:02 | 21.30879 | -157.93451 | 230 ft | 149 kts | 54° |
| 2026-04-24 00:02 | 21.31509 | -157.92556 | 26 ft | 152 kts | 54° |
| 2026-04-24 00:02 | 21.32051 | -157.91784 | 18 ft | 109 kts | 53° |
| 2026-04-24 00:03 | 21.32458 | -157.91206 | 14 ft | 86 kts | 53° |
| 2026-04-24 00:03 | 21.32697 | -157.90869 | 20 ft | 34 kts | 52° |
| 2026-04-24 00:03 | 21.32829 | -157.90693 | 19 ft | 23 kts | 33° |
| 2026-04-24 00:03 | 21.32956 | -157.90694 | 14 ft | 20 kts | 332° |
| 2026-04-24 00:04 | 21.33040 | -157.90775 | 14 ft | 15 kts | 296° |
| 2026-04-24 00:04 | 21.33039 | -157.90876 | 17 ft | 15 kts | 246° |
| 2026-04-24 00:04 | 21.32918 | -157.91044 | 19 ft | 65 kts | 228° |
| 2026-04-24 00:04 | 21.32779 | -157.91361 | 17 ft | 30 kts | 268° |
| 2026-04-24 00:05 | 21.32803 | -157.91492 | 17 ft | 9 kts | 303° |